»·PEaware :: UAL1542 KSFO-KDEN

UAL1542 :: KSFO-KDEN

FLIGHT INFORMATION

Flight Status: Arrived
Operator:
United Airlines
More flights by this operator :: More flights under this callsign
Pilot: Ryan L. (9775)
Aircraft: BOEING 737-800
(B738)
More flights by this aircraft type
Origin: KSFO San Francisco Intl
United States
Destination: KDEN Denver Intl
United States
More flights between these airports :: More routes between these airports
Route: TRUKN2 TIPRE Q126 EKR KAILE2
File this flight plan on PilotEdge
Remarks:
Altitude:
(Current/Filed)
35,000ft
Speed:
(Current/Filed)
460kts
Departed: 12-Jan-18 09:01 PM
Arrived: 12-Jan-18 11:09 PM
Distance/Time
Traveled:
838nm/2:08
Distance/Time
To Go:
Arrived

Flight Plot

Page will automatically refresh every two minutes.


Map Options




Map Legend


Flown Route
Filed Route
Departure Airport
Arrival Airport
Navaid (VOR, NDB)
Fix

Horizontal Profiles

Position Reports

Time Latitude Longitude Heading Altitude Ground
Speed
12-Jan-18 20:45 37.619456 -122.384855 119 20ft 0kts
12-Jan-18 20:46 37.619456 -122.384855 119 20ft 0kts
12-Jan-18 20:47 37.619456 -122.384855 119 20ft 0kts
12-Jan-18 20:48 37.619635 -122.385263 105 20ft 2kts
12-Jan-18 20:49 37.619319 -122.385791 29 20ft 0kts
12-Jan-18 20:50 37.619319 -122.385791 29 20ft 0kts
12-Jan-18 20:51 37.619319 -122.385791 29 20ft 0kts
12-Jan-18 20:52 37.619319 -122.385791 29 20ft 0kts
12-Jan-18 20:53 37.619319 -122.385791 29 20ft 0kts
12-Jan-18 20:54 37.619319 -122.385791 29 20ft 0kts
12-Jan-18 20:55 37.619319 -122.385791 29 20ft 0kts
12-Jan-18 20:56 37.619319 -122.385791 29 20ft 0kts
12-Jan-18 20:57 37.619319 -122.385791 29 20ft 0kts
12-Jan-18 20:58 37.619448 -122.385701 28 20ft 2kts
12-Jan-18 20:59 37.620211 -122.385222 25 20ft 0kts
12-Jan-18 21:00 37.620615 -122.384842 66 20ft 7kts
12-Jan-18 21:01 37.619168 -122.380889 119 20ft 16kts
12-Jan-18 21:02 37.615739 -122.379279 207 20ft 16kts
12-Jan-18 21:03 37.611688 -122.381976 207 20ft 16kts
12-Jan-18 21:04 37.608595 -122.383793 155 20ft 0kts
12-Jan-18 21:05 37.608595 -122.383793 155 20ft 0kts
12-Jan-18 21:06 37.608374 -122.383550 128 20ft 7kts
12-Jan-18 21:07 37.616255 -122.377389 28 21ft 121kts
12-Jan-18 21:08 37.651777 -122.344213 56 1465ft 186kts
12-Jan-18 21:09 37.681122 -122.285716 58 2683ft 238kts
12-Jan-18 21:10 37.719838 -122.210072 55 5129ft 263kts
12-Jan-18 21:11 37.760400 -122.131913 55 7804ft 273kts
12-Jan-18 21:12 37.802348 -122.050818 54 10309ft 283kts
12-Jan-18 21:13 37.844841 -121.958774 61 12094ft 318kts
12-Jan-18 21:14 37.884995 -121.856661 61 14346ft 331kts
12-Jan-18 21:15 37.926715 -121.751058 61 16728ft 346kts
12-Jan-18 21:16 37.970432 -121.640121 61 19150ft 361kts
12-Jan-18 21:17 38.015415 -121.525556 61 21407ft 376kts
12-Jan-18 21:18 38.062295 -121.405704 62 23523ft 390kts
12-Jan-18 21:19 38.106277 -121.292857 63 25332ft 402kts
12-Jan-18 21:20 38.153248 -121.171861 63 27276ft 408kts
12-Jan-18 21:21 38.202066 -121.045243 64 29479ft 402kts
12-Jan-18 21:22 38.222590 -120.906885 79 31390ft 401kts
12-Jan-18 21:23 38.238536 -120.765638 79 32276ft 421kts
12-Jan-18 21:24 38.256097 -120.611705 79 32494ft 462kts
12-Jan-18 21:25 38.274499 -120.450861 79 34221ft 462kts
12-Jan-18 21:26 38.292961 -120.291351 79 35341ft 461kts
12-Jan-18 21:27 38.311933 -120.129351 79 35393ft 465kts
12-Jan-18 21:28 38.331123 -119.967284 79 35476ft 464kts
12-Jan-18 21:29 38.350460 -119.805829 79 35476ft 464kts
12-Jan-18 21:30 38.370082 -119.643841 78 35488ft 464kts
12-Jan-18 21:31 38.389983 -119.481384 78 35504ft 464kts
12-Jan-18 21:32 38.409858 -119.320974 79 35483ft 464kts
12-Jan-18 21:33 38.430123 -119.159292 78 35478ft 464kts
12-Jan-18 21:34 38.450564 -118.997786 78 35475ft 465kts
12-Jan-18 21:35 38.471432 -118.834575 76 35476ft 469kts
12-Jan-18 21:36 38.492590 -118.671127 76 35477ft 469kts
12-Jan-18 21:37 38.514031 -118.507170 76 35478ft 469kts
12-Jan-18 21:38 38.535181 -118.347055 76 35479ft 469kts
12-Jan-18 21:39 38.556943 -118.184213 76 35474ft 469kts
12-Jan-18 21:40 38.578958 -118.020972 76 35474ft 469kts
12-Jan-18 21:41 38.601205 -117.857700 75 35475ft 469kts
12-Jan-18 21:42 38.623760 -117.693816 75 35452ft 469kts
12-Jan-18 21:43 38.646460 -117.530522 75 35432ft 469kts
12-Jan-18 21:44 38.669387 -117.367241 75 35431ft 469kts
12-Jan-18 21:45 38.693483 -117.207951 75 35426ft 469kts
12-Jan-18 21:46 38.716746 -117.044800 75 35427ft 469kts
12-Jan-18 21:47 38.739340 -116.881854 73 35434ft 464kts
12-Jan-18 21:48 38.761981 -116.719983 73 35443ft 464kts
12-Jan-18 21:49 38.784849 -116.557865 73 35452ft 464kts
12-Jan-18 21:50 38.807768 -116.396900 73 35463ft 463kts
12-Jan-18 21:51 38.830346 -116.239928 73 35467ft 464kts
12-Jan-18 21:52 38.853774 -116.078468 73 35469ft 463kts
12-Jan-18 21:53 38.877384 -115.917253 73 35448ft 463kts
12-Jan-18 21:54 38.901304 -115.755414 72 35445ft 463kts
12-Jan-18 21:55 38.925232 -115.595006 72 35446ft 462kts
12-Jan-18 21:56 38.949474 -115.433984 72 35446ft 462kts
12-Jan-18 21:57 38.973305 -115.277151 72 35441ft 462kts
12-Jan-18 21:58 38.997859 -115.116811 71 35440ft 459kts
12-Jan-18 21:59 39.022372 -114.958091 70 35439ft 451kts
12-Jan-18 22:00 39.046996 -114.800422 69 35439ft 451kts
12-Jan-18 22:01 39.071357 -114.645570 69 35439ft 451kts
12-Jan-18 22:02 39.096382 -114.487788 69 35440ft 451kts
12-Jan-18 22:03 39.119841 -114.341072 69 35456ft 451kts
12-Jan-18 22:04 39.144674 -114.186970 69 35453ft 451kts
12-Jan-18 22:05 39.170009 -114.031052 69 35453ft 451kts
12-Jan-18 22:06 39.195791 -113.873681 69 35450ft 451kts
12-Jan-18 22:07 39.221661 -113.717057 68 35446ft 451kts
12-Jan-18 22:08 39.247866 -113.559678 68 35451ft 451kts
12-Jan-18 22:09 39.274233 -113.402588 68 35463ft 450kts
12-Jan-18 22:10 39.292411 -113.295018 69 35467ft 451kts
12-Jan-18 22:11 39.312100 -113.178407 69 35469ft 451kts
12-Jan-18 22:12 39.338440 -113.021509 68 35469ft 451kts
12-Jan-18 22:13 39.364521 -112.864805 67 35470ft 447kts
12-Jan-18 22:14 39.390251 -112.709078 67 35470ft 445kts
12-Jan-18 22:15 39.415648 -112.553871 67 35470ft 444kts
12-Jan-18 22:16 39.440825 -112.398474 67 35469ft 445kts
12-Jan-18 22:17 39.465069 -112.247346 67 35465ft 446kts
12-Jan-18 22:18 39.489839 -112.091488 67 35466ft 446kts
12-Jan-18 22:19 39.514392 -111.935562 67 35466ft 446kts
12-Jan-18 22:20 39.538701 -111.779657 67 35469ft 446kts
12-Jan-18 22:21 39.562918 -111.622838 67 35474ft 446kts
12-Jan-18 22:22 39.586871 -111.466184 67 35451ft 446kts
12-Jan-18 22:23 39.610181 -111.312237 68 35417ft 447kts
12-Jan-18 22:24 39.633819 -111.154483 68 35417ft 448kts
12-Jan-18 22:25 39.657026 -110.997980 68 35414ft 444kts
12-Jan-18 22:26 39.679858 -110.842527 67 35432ft 440kts
12-Jan-18 22:27 39.702591 -110.686513 68 35436ft 441kts
12-Jan-18 22:28 39.724981 -110.531087 68 35437ft 441kts
12-Jan-18 22:29 39.747177 -110.375417 68 35434ft 441kts
12-Jan-18 22:30 39.767734 -110.229698 68 35432ft 443kts
12-Jan-18 22:31 39.789557 -110.073496 68 35428ft 443kts
12-Jan-18 22:32 39.811223 -109.916868 68 35425ft 443kts
12-Jan-18 22:33 39.832761 -109.759525 68 35421ft 443kts
12-Jan-18 22:34 39.854152 -109.601644 68 35424ft 442kts
12-Jan-18 22:35 39.875176 -109.444848 68 35423ft 443kts
12-Jan-18 22:36 39.895475 -109.291702 69 35422ft 444kts
12-Jan-18 22:37 39.916192 -109.133632 68 35419ft 442kts
12-Jan-18 22:38 39.936495 -108.977054 68 35417ft 437kts
12-Jan-18 22:39 39.956451 -108.821901 67 35427ft 436kts
12-Jan-18 22:40 39.976216 -108.666414 68 35437ft 437kts
12-Jan-18 22:41 39.995725 -108.511130 67 35435ft 437kts
12-Jan-18 22:42 40.015105 -108.355258 67 35438ft 437kts
12-Jan-18 22:43 40.032669 -108.212197 68 35433ft 439kts
12-Jan-18 22:44 40.051482 -108.057509 68 35433ft 438kts
12-Jan-18 22:45 40.071295 -107.902988 62 35427ft 428kts
12-Jan-18 22:46 40.100995 -107.759884 62 35434ft 428kts
12-Jan-18 22:47 40.131328 -107.610568 62 35451ft 428kts
12-Jan-18 22:48 40.161398 -107.460998 62 35443ft 429kts
12-Jan-18 22:49 40.189320 -107.321018 63 35443ft 430kts
12-Jan-18 22:50 40.218854 -107.171691 63 35445ft 430kts
12-Jan-18 22:51 40.248139 -107.022723 63 35445ft 430kts
12-Jan-18 22:52 40.277176 -106.873865 62 35432ft 428kts
12-Jan-18 22:53 40.305969 -106.725201 62 35425ft 424kts
12-Jan-18 22:54 40.331648 -106.590206 60 35307ft 353kts
12-Jan-18 22:55 40.354512 -106.472700 60 34099ft 366kts
12-Jan-18 22:56 40.380396 -106.336805 64 31892ft 425kts
12-Jan-18 22:57 40.403794 -106.211954 65 29899ft 443kts
12-Jan-18 22:58 40.437840 -106.029303 67 27046ft 442kts
12-Jan-18 22:59 40.430084 -105.894984 96 24996ft 457kts
12-Jan-18 23:00 40.404885 -105.738134 97 22566ft 443kts
12-Jan-18 23:01 40.380412 -105.584563 99 20136ft 431kts
12-Jan-18 23:02 40.356537 -105.435871 100 18086ft 413kts
12-Jan-18 23:03 40.311000 -105.306223 118 15897ft 397kts
12-Jan-18 23:04 40.262519 -105.180839 118 13526ft 384kts
12-Jan-18 23:05 40.218573 -105.066350 117 11103ft 340kts
12-Jan-18 23:06 40.177843 -104.966706 118 10054ft 300kts
12-Jan-18 23:07 40.138791 -104.871036 108 10059ft 296kts
12-Jan-18 23:08 40.112112 -104.780163 107 10038ft 248kts
12-Jan-18 23:09 40.079318 -104.705401 127 9311ft 238kts
12-Jan-18 23:10 40.040117 -104.649890 179 8948ft 193kts
12-Jan-18 23:11 39.992341 -104.657078 191 7996ft 155kts
12-Jan-18 23:12 39.950265 -104.658940 187 7214ft 152kts
12-Jan-18 23:13 39.909020 -104.659551 186 6397ft 147kts
12-Jan-18 23:14 39.870875 -104.660030 185 5665ft 143kts
12-Jan-18 23:15 39.842479 -104.660615 194 5439ft 36kts
12-Jan-18 23:16 39.841171 -104.662547 1 5439ft 15kts
12-Jan-18 23:17 39.846086 -104.662499 1 5439ft 17kts
12-Jan-18 23:18 39.851386 -104.662462 358 5438ft 21kts
12-Jan-18 23:19 39.857752 -104.662402 1 5439ft 25kts
12-Jan-18 23:20 39.860561 -104.666794 266 5439ft 17kts
12-Jan-18 23:21 39.860551 -104.673220 270 5439ft 17kts
12-Jan-18 23:22 39.859461 -104.675250 179 5438ft 5kts
12-Jan-18 23:23 39.859311 -104.675249 180 5439ft 0kts
12-Jan-18 23:24 39.859311 -104.675249 180 5439ft 0kts
12-Jan-18 23:25 39.859311 -104.675249 180 5439ft 0kts
12-Jan-18 23:26 39.859311 -104.675249 180 5439ft 0kts

Navigation Log

Ident Type
1. KSFO Airport
2. TIPRE Fix
3. INSLO Fix
4. GAROT Fix
5. EKR Navaid
6. KDEN Airport